Aviation Digital Data Service (ADDS)

Output produced by METARs form (2235 UTC 30 March 2017)
found at http://www.aviationweather.gov/adds/metars/
 
WBSB 302200Z 14001KT 9999 -SHRA FEW004 SCT020 BKN140 24/24 Q1012 TEMPO 8000 -SHRA
TAF WBSB 301650Z 3018/0100 20004KT 9999 FEW005 FEW015CB 
     BECMG 3100/3102 30008KT FEW015 
     BECMG 3104/3106 SCT016 FEW017CB